Time;durP1;ratioP1;P1;durP2;ratioP2;P2;SDS_P1;SDS_P2;PMS_P1;PMS_P2;Temp;Humidity;BMP_temperature;BMP_pressure;BME280_temperature;BME280_humidity;BME280_pressure;Samples;Min_cycle;Max_cycle;Signal;HPM_P1;HPM_P2
2020/12/26 00:01:17;;;;;;;10.60;5.53;;;6.30;99.90;;;;;;4995010;28;20426;-71
2020/12/26 00:03:43;;;;;;;10.03;6.47;;;6.30;99.90;;;;;;4996183;28;20912;-72
2020/12/26 00:06:20;;;;;;;7.80;6.30;;;6.30;99.90;;;;;;4993926;28;21008;-71
2020/12/26 00:08:46;;;;;;;8.13;5.67;;;6.30;99.90;;;;;;4994506;28;20439;-71
2020/12/26 00:11:14;;;;;;;8.97;6.10;;;6.30;99.90;;;;;;4994528;28;20900;-71
2020/12/26 00:13:39;;;;;;;12.13;6.60;;;6.30;99.90;;;;;;4994552;28;20577;-71
2020/12/26 00:16:06;;;;;;;8.77;5.80;;;6.30;99.90;;;;;;4994341;28;20428;-71
2020/12/26 00:18:32;;;;;;;12.27;6.40;;;6.30;99.90;;;;;;4994529;28;20628;-71
2020/12/26 00:20:59;;;;;;;7.50;6.20;;;6.40;99.90;;;;;;4994325;28;20507;-70
2020/12/26 00:23:24;;;;;;;14.75;7.82;;;6.40;99.90;;;;;;5000237;28;20435;-70
2020/12/26 00:25:50;;;;;;;8.90;6.60;;;6.40;99.90;;;;;;4993328;28;20227;-69
2020/12/26 00:28:15;;;;;;;11.97;6.67;;;6.40;99.90;;;;;;4993589;28;20299;-69
2020/12/26 00:30:42;;;;;;;10.50;6.80;;;6.40;99.90;;;;;;4993627;28;20181;-69
2020/12/26 00:33:07;;;;;;;9.23;7.27;;;6.40;99.90;;;;;;4993723;28;20271;-69
2020/12/26 00:35:33;;;;;;;13.83;8.50;;;6.30;99.90;;;;;;4993506;28;20967;-69
2020/12/26 00:37:58;;;;;;;13.43;8.83;;;6.30;99.90;;;;;;4993294;28;20249;-69
2020/12/26 00:40:24;;;;;;;14.93;8.70;;;6.20;99.90;;;;;;4992803;28;20425;-69
2020/12/26 00:42:49;;;;;;;16.80;8.50;;;6.20;99.90;;;;;;4993314;28;20432;-69
2020/12/26 00:45:15;;;;;;;15.07;8.73;;;6.20;99.90;;;;;;4993329;28;20177;-70
2020/12/26 00:47:40;;;;;;;18.90;9.60;;;6.20;99.90;;;;;;4993449;28;20235;-72
2020/12/26 00:50:06;;;;;;;10.27;8.90;;;6.20;99.90;;;;;;4992936;28;20251;-71
2020/12/26 00:52:32;;;;;;;15.97;8.80;;;6.20;99.90;;;;;;4992724;28;20181;-72
2020/12/26 00:54:58;;;;;;;18.03;7.93;;;6.20;99.90;;;;;;4991792;28;20189;-72
2020/12/26 00:57:23;;;;;;;9.80;8.20;;;6.20;99.90;;;;;;4992368;28;20442;-72
2020/12/26 00:59:49;;;;;;;13.53;8.40;;;6.20;99.90;;;;;;4992598;28;20555;-72
2020/12/26 01:02:14;;;;;;;11.53;7.73;;;6.20;99.90;;;;;;4992381;28;20177;-72
2020/12/26 01:04:40;;;;;;;13.33;9.70;;;6.20;99.90;;;;;;4992321;28;20217;-72
2020/12/26 01:07:05;;;;;;;10.23;8.60;;;6.10;99.90;;;;;;4992736;28;20632;-72
2020/12/26 01:09:31;;;;;;;13.33;8.50;;;6.10;99.90;;;;;;4993461;28;20176;-72
2020/12/26 01:11:56;;;;;;;15.13;7.87;;;6.10;99.90;;;;;;4993465;28;20185;-72
2020/12/26 01:14:22;;;;;;;17.87;8.63;;;6.00;99.90;;;;;;4993114;28;20269;-72
2020/12/26 01:16:51;;;;;;;9.63;8.00;;;6.00;99.90;;;;;;4992623;28;20267;-72
2020/12/26 01:19:18;;;;;;;13.43;7.83;;;6.00;99.90;;;;;;4993517;28;20187;-70
2020/12/26 01:21:52;;;;;;;9.73;7.53;;;6.00;99.90;;;;;;4993184;28;20899;-70
2020/12/26 01:24:18;;;;;;;11.90;8.80;;;6.00;99.90;;;;;;4993667;28;20823;-69
2020/12/26 01:26:50;;;;;;;10.53;7.53;;;6.00;99.90;;;;;;4993133;28;20413;-69
2020/12/26 01:29:17;;;;;;;9.50;7.90;;;6.00;99.90;;;;;;4992021;28;20950;-69
2020/12/26 01:31:47;;;;;;;12.73;7.63;;;6.10;99.90;;;;;;4993119;28;20420;-69
2020/12/26 01:34:13;;;;;;;11.60;7.13;;;6.10;99.90;;;;;;4993333;28;20423;-69
2020/12/26 01:36:38;;;;;;;18.13;7.60;;;6.00;99.90;;;;;;4992872;28;20468;-72
2020/12/26 01:39:04;;;;;;;11.53;8.07;;;6.10;99.90;;;;;;4993062;28;20181;-72
2020/12/26 01:41:29;;;;;;;9.70;7.83;;;6.00;99.90;;;;;;4993172;28;20177;-72
2020/12/26 01:44:00;;;;;;;9.57;7.70;;;6.00;99.90;;;;;;4992935;28;20691;-72
2020/12/26 01:46:28;;;;;;;14.10;8.93;;;6.00;99.90;;;;;;4992839;28;20539;-71
2020/12/26 01:48:53;;;;;;;15.70;9.50;;;6.00;99.90;;;;;;4992818;28;20441;-72
2020/12/26 01:51:23;;;;;;;16.60;11.03;;;5.90;99.90;;;;;;4992748;28;20919;-72
2020/12/26 01:53:49;;;;;;;18.33;11.60;;;5.90;99.90;;;;;;4994616;28;20530;-71
2020/12/26 01:56:15;;;;;;;17.30;10.77;;;5.90;99.90;;;;;;4992964;28;20853;-71
2020/12/26 01:58:44;;;;;;;18.53;10.90;;;6.00;99.90;;;;;;4992968;28;20420;-71
2020/12/26 02:01:10;;;;;;;17.63;11.57;;;5.90;99.90;;;;;;4993673;28;20914;-71
2020/12/26 02:03:37;;;;;;;24.00;11.20;;;5.90;99.90;;;;;;4993620;28;20483;-71
2020/12/26 02:06:03;;;;;;;17.37;12.30;;;5.90;99.90;;;;;;4993646;28;20255;-71
2020/12/26 06:31:42;;;;;;;19.87;14.60;;;6.00;99.90;;;;;;5447905;23;20519;-70
2020/12/26 06:34:10;;;;;;;19.97;15.97;;;6.00;99.90;;;;;;4997523;28;20464;-70
2020/12/26 06:36:35;;;;;;;20.00;14.47;;;6.10;99.90;;;;;;4997329;28;20436;-71
2020/12/26 06:39:21;;;;;;;18.83;13.80;;;6.00;99.90;;;;;;4996987;28;20531;-68
2020/12/26 06:42:13;;;;;;;16.13;12.90;;;6.00;99.90;;;;;;4996996;28;20188;-68
2020/12/26 06:44:39;;;;;;;15.77;12.87;;;6.10;99.90;;;;;;5019376;23;20501;-69
2020/12/26 06:47:04;;;;;;;18.77;12.07;;;6.10;99.90;;;;;;4997002;28;20447;-67
2020/12/26 06:49:30;;;;;;;15.23;12.40;;;6.20;99.90;;;;;;4997001;28;20185;-68
2020/12/26 06:51:56;;;;;;;14.43;11.80;;;6.20;99.90;;;;;;4996882;28;20229;-68
2020/12/26 06:54:42;;;;;;;20.00;12.40;;;6.20;99.90;;;;;;4997025;28;20539;-69
2020/12/26 06:57:08;;;;;;;16.20;13.80;;;6.10;99.90;;;;;;4995821;28;20534;-70
2020/12/26 06:59:35;;;;;;;14.23;12.83;;;6.20;99.90;;;;;;4996823;28;20472;-70
2020/12/26 07:02:08;;;;;;;17.63;13.47;;;6.30;99.90;;;;;;4996810;28;20188;-70
2020/12/26 07:04:41;;;;;;;15.73;13.50;;;6.20;99.90;;;;;;4996829;28;20483;-70
2020/12/26 07:07:10;;;;;;;16.23;13.00;;;6.10;99.90;;;;;;4995562;28;20431;-69
2020/12/26 07:09:35;;;;;;;16.20;12.93;;;6.00;99.90;;;;;;4996630;28;20432;-68
2020/12/26 07:12:06;;;;;;;16.47;13.33;;;5.90;99.90;;;;;;4996407;28;20446;-68
2020/12/26 07:18:31;;;;;;;21.90;15.20;;;6.00;99.90;;;;;;4996628;28;20431;-69
2020/12/26 07:20:56;;;;;;;15.70;13.40;;;5.90;99.90;;;;;;4996712;28;20264;-69
2020/12/26 07:23:22;;;;;;;17.80;12.27;;;5.90;99.90;;;;;;4996858;28;20559;-69
2020/12/26 07:25:48;;;;;;;18.00;12.77;;;6.00;99.90;;;;;;4996619;28;20668;-69
2020/12/26 07:28:13;;;;;;;15.60;12.33;;;5.90;99.90;;;;;;4996853;28;20187;-70
2020/12/26 07:30:39;;;;;;;15.50;12.60;;;6.00;99.90;;;;;;4996301;28;20181;-69
2020/12/26 07:33:04;;;;;;;15.67;13.77;;;5.90;99.90;;;;;;4996759;28;20180;-71
2020/12/26 07:35:35;;;;;;;20.87;13.83;;;5.90;99.90;;;;;;4996745;28;20686;-71
2020/12/26 07:38:08;;;;;;;19.17;13.80;;;6.00;99.90;;;;;;4996412;28;20162;-71
2020/12/26 07:40:40;;;;;;;16.93;13.23;;;6.00;99.90;;;;;;4996738;28;20560;-69
2020/12/26 07:43:11;;;;;;;16.70;12.20;;;5.90;99.90;;;;;;4996210;28;20510;-70
2020/12/26 07:45:39;;;;;;;16.60;11.83;;;5.90;99.90;;;;;;4996416;28;20432;-71
2020/12/26 07:48:05;;;;;;;19.03;13.70;;;5.90;99.90;;;;;;4996385;28;20532;-75
2020/12/26 07:50:33;;;;;;;15.07;12.77;;;6.00;99.90;;;;;;4996171;28;20440;-72
2020/12/26 07:53:01;;;;;;;13.70;11.40;;;6.00;99.90;;;;;;4996432;28;20798;-73
2020/12/26 07:55:29;;;;;;;16.43;13.00;;;6.00;99.90;;;;;;4996428;28;20428;-75
2020/12/26 07:58:04;;;;;;;18.90;11.87;;;5.90;99.90;;;;;;4996347;28;20437;-74
2020/12/26 08:00:36;;;;;;;16.23;12.80;;;5.90;99.90;;;;;;4996255;28;20432;-74
2020/12/26 08:03:03;;;;;;;22.87;12.10;;;5.90;99.90;;;;;;4996104;28;20428;-77
2020/12/26 08:05:31;;;;;;;23.77;13.27;;;6.00;99.90;;;;;;4996163;28;20431;-74
2020/12/26 08:07:57;;;;;;;20.27;12.40;;;6.00;99.90;;;;;;4996129;28;20431;-74
2020/12/26 08:10:24;;;;;;;17.87;13.20;;;6.00;99.90;;;;;;4995729;28;20989;-73
2020/12/26 08:12:50;;;;;;;20.10;11.90;;;5.80;99.90;;;;;;4994569;28;20792;-72
2020/12/26 08:15:24;;;;;;;17.07;13.30;;;5.90;99.90;;;;;;4995450;28;20545;-73
2020/12/26 08:17:58;;;;;;;22.88;15.45;;;6.00;99.90;;;;;;4995267;28;20433;-71
2020/12/26 08:20:25;;;;;;;20.00;14.33;;;6.10;99.90;;;;;;4995917;28;20180;-71
2020/12/26 08:22:51;;;;;;;15.00;12.33;;;6.20;99.90;;;;;;4995412;28;20428;-70
2020/12/26 08:25:19;;;;;;;25.30;13.63;;;6.30;99.90;;;;;;4995396;28;20439;-71
2020/12/26 08:27:45;;;;;;;20.23;13.40;;;6.20;99.90;;;;;;4995689;28;20207;-72
2020/12/26 08:30:14;;;;;;;21.10;14.00;;;6.20;99.90;;;;;;4995420;28;20432;-71
2020/12/26 08:32:52;;;;;;;16.40;12.07;;;6.20;99.90;;;;;;4995258;28;20514;-70
2020/12/26 08:35:20;;;;;;;14.97;11.93;;;6.10;99.90;;;;;;4995383;28;20459;-70
2020/12/26 08:37:50;;;;;;;18.77;13.03;;;6.00;99.90;;;;;;4995613;28;20420;-70
2020/12/26 08:40:17;;;;;;;18.33;12.97;;;6.00;99.90;;;;;;4995567;28;20404;-70
2020/12/26 08:42:43;;;;;;;16.93;13.07;;;6.00;99.90;;;;;;4995254;28;20429;-69
2020/12/26 08:45:27;;;;;;;21.70;12.13;;;6.10;99.90;;;;;;4995300;28;20538;-70
2020/12/26 08:47:53;;;;;;;19.03;12.37;;;6.00;99.90;;;;;;4995121;28;20428;-70
2020/12/26 08:50:18;;;;;;;16.70;11.60;;;6.00;99.90;;;;;;4995256;28;20434;-74
2020/12/26 08:52:44;;;;;;;19.70;12.03;;;6.10;99.90;;;;;;4995022;28;20743;-74
2020/12/26 08:55:10;;;;;;;15.60;10.80;;;6.10;99.90;;;;;;4994937;28;20212;-74
2020/12/26 08:57:37;;;;;;;17.17;11.50;;;6.10;99.90;;;;;;4995185;28;20442;-75
2020/12/26 09:00:19;;;;;;;15.50;12.53;;;6.20;99.90;;;;;;4995086;28;20427;-75
2020/12/26 09:02:53;;;;;;;16.50;11.00;;;6.20;99.90;;;;;;4995026;28;20456;-74
2020/12/26 09:05:22;;;;;;;21.20;11.90;;;6.10;99.90;;;;;;4994980;28;20437;-70
2020/12/26 09:07:47;;;;;;;16.93;11.60;;;6.10;99.90;;;;;;4994721;28;20428;-71
2020/12/26 09:10:13;;;;;;;18.47;11.13;;;6.10;99.90;;;;;;4994925;28;20482;-73
2020/12/26 09:12:38;;;;;;;16.73;11.93;;;6.10;99.90;;;;;;4995035;28;20192;-73
2020/12/26 09:15:04;;;;;;;20.00;10.93;;;6.10;99.90;;;;;;4994833;28;20536;-74
2020/12/26 09:17:29;;;;;;;15.33;10.33;;;6.00;99.90;;;;;;4994884;28;20173;-75
2020/12/26 09:19:58;;;;;;;13.73;9.27;;;6.10;99.90;;;;;;4994784;28;20205;-72
2020/12/26 09:22:28;;;;;;;16.07;11.40;;;6.20;99.90;;;;;;4994737;28;20177;-74
2020/12/26 09:28:16;;;;;;;15.50;10.27;;;6.00;99.90;;;;;;4994324;28;20434;-74
2020/12/26 09:34:15;;;;;;;12.80;10.40;;;5.90;99.90;;;;;;4994242;28;20431;-73
2020/12/26 09:36:41;;;;;;;16.50;11.00;;;5.90;99.90;;;;;;4993729;28;20420;-72
2020/12/26 09:42:28;;;;;;;9.97;7.53;;;6.00;99.90;;;;;;4994048;28;20248;-76
2020/12/26 09:44:54;;;;;;;9.63;8.17;;;5.90;99.90;;;;;;4993769;28;21050;-75
2020/12/26 09:47:19;;;;;;;9.30;8.00;;;5.90;99.90;;;;;;4994258;28;20169;-75
2020/12/26 09:49:45;;;;;;;9.23;7.80;;;6.00;99.90;;;;;;4993951;28;20655;-76
2020/12/26 09:52:10;;;;;;;10.43;8.67;;;6.00;99.90;;;;;;4994239;28;20206;-76
2020/12/26 09:54:36;;;;;;;15.70;7.57;;;6.00;99.90;;;;;;4994254;28;20627;-74
2020/12/26 09:57:02;;;;;;;9.93;7.73;;;6.10;99.90;;;;;;4993902;28;20716;-73
2020/12/26 09:59:27;;;;;;;11.03;8.77;;;6.20;99.90;;;;;;4993922;28;20440;-72
2020/12/26 10:01:53;;;;;;;13.80;9.53;;;6.20;99.90;;;;;;4993688;28;20169;-72
2020/12/26 10:04:18;;;;;;;12.80;8.80;;;6.20;99.90;;;;;;4994084;28;20272;-72
2020/12/26 10:06:44;;;;;;;10.33;8.10;;;6.20;99.90;;;;;;4994120;28;20203;-73
2020/12/26 10:12:31;;;;;;;14.70;8.00;;;6.10;99.90;;;;;;4993891;28;20553;-72
2020/12/26 10:14:57;;;;;;;10.97;7.57;;;5.90;99.90;;;;;;4993738;28;20489;-75
2020/12/26 10:17:22;;;;;;;10.30;7.07;;;5.90;99.90;;;;;;4993796;28;20180;-73
2020/12/26 10:19:48;;;;;;;15.50;8.97;;;6.10;99.90;;;;;;4993960;28;20184;-73
2020/12/26 10:25:36;;;;;;;11.00;8.47;;;6.20;99.90;;;;;;4993583;28;20181;-73
2020/12/26 10:31:30;;;;;;;10.07;7.60;;;6.20;99.90;;;;;;4993518;28;20420;-73
2020/12/26 10:37:19;;;;;;;13.70;8.53;;;6.20;99.90;;;;;;4993699;28;20407;-75
2020/12/26 10:43:06;;;;;;;8.50;7.53;;;6.20;99.90;;;;;;4993179;28;20455;-75
2020/12/26 10:45:32;;;;;;;13.97;7.83;;;6.20;99.90;;;;;;4993429;28;20436;-74
2020/12/26 10:47:57;;;;;;;9.80;8.07;;;6.50;99.90;;;;;;4993860;28;20177;-73
2020/12/26 10:53:45;;;;;;;13.10;7.50;;;6.60;99.90;;;;;;4997439;28;20698;-73
2020/12/26 10:59:32;;;;;;;13.67;6.70;;;6.40;99.90;;;;;;4997123;28;20795;-72
2020/12/26 11:05:19;;;;;;;9.30;6.20;;;6.30;99.90;;;;;;4996996;28;20668;-73
2020/12/26 11:07:45;;;;;;;8.70;6.77;;;6.40;99.90;;;;;;4997174;28;20420;-75
2020/12/26 11:10:11;;;;;;;9.73;7.17;;;6.50;99.90;;;;;;4996847;28;20180;-69
2020/12/26 11:12:36;;;;;;;9.73;6.30;;;6.50;99.90;;;;;;4996719;28;20272;-70
2020/12/26 11:15:02;;;;;;;14.97;6.80;;;6.70;99.90;;;;;;4996951;28;20307;-70
2020/12/26 11:17:27;;;;;;;10.03;6.93;;;6.80;99.90;;;;;;4996655;28;20674;-70
2020/12/26 11:19:53;;;;;;;11.27;6.10;;;6.80;99.90;;;;;;4996919;28;20179;-69
2020/12/26 11:22:18;;;;;;;6.10;5.00;;;6.90;99.90;;;;;;4996578;28;20275;-69
2020/12/26 11:24:44;;;;;;;11.90;5.30;;;7.00;99.90;;;;;;4996734;28;20355;-69
2020/12/26 11:27:10;;;;;;;10.33;5.57;;;7.00;99.90;;;;;;4996778;28;20537;-72
2020/12/26 11:29:36;;;;;;;6.50;5.10;;;7.10;99.90;;;;;;4996762;28;20195;-70
2020/12/26 11:32:01;;;;;;;6.20;5.60;;;7.10;99.90;;;;;;4996392;28;20184;-69
2020/12/26 11:34:27;;;;;;;8.33;5.40;;;7.10;99.90;;;;;;4996621;28;20185;-69
2020/12/26 11:36:52;;;;;;;8.23;5.27;;;7.00;99.90;;;;;;4996552;28;20523;-70
2020/12/26 11:39:18;;;;;;;7.10;5.53;;;6.80;99.90;;;;;;4996412;28;20625;-69
2020/12/26 11:48:41;;;;;;;9.70;5.80;;;6.90;99.90;;;;;;4996160;28;20455;-71
2020/12/26 11:51:08;;;;;;;8.10;5.53;;;6.80;99.90;;;;;;4996297;28;20814;-71
2020/12/26 11:53:33;;;;;;;6.67;4.67;;;6.90;99.90;;;;;;4996384;28;20188;-70
2020/12/26 11:55:59;;;;;;;7.50;5.93;;;7.00;99.90;;;;;;4996261;28;20768;-69
2020/12/26 12:01:47;;;;;;;13.20;5.57;;;7.00;99.90;;;;;;4994750;28;20168;-70
2020/12/26 12:04:13;;;;;;;5.33;4.70;;;7.10;99.90;;;;;;4995759;28;20507;-70
2020/12/26 12:06:38;;;;;;;7.33;4.87;;;7.00;99.90;;;;;;4996011;28;20958;-69
2020/12/26 12:09:04;;;;;;;6.20;3.80;;;7.00;99.90;;;;;;4995876;28;20181;-69
2020/12/26 12:14:52;;;;;;;5.57;4.60;;;7.10;99.90;;;;;;4995748;28;20919;-70
2020/12/26 12:17:18;;;;;;;9.90;4.80;;;7.10;99.90;;;;;;4995906;28;20431;-70
2020/12/26 12:23:05;;;;;;;4.93;3.60;;;7.80;99.90;;;;;;4995528;28;20212;-68
2020/12/26 12:25:31;;;;;;;7.10;4.10;;;7.80;99.90;;;;;;4995746;28;20823;-69
2020/12/26 12:27:57;;;;;;;5.53;3.50;;;7.70;99.90;;;;;;4995384;28;20173;-69
2020/12/26 12:30:24;;;;;;;4.70;3.57;;;7.60;99.90;;;;;;4995405;28;20675;-69
2020/12/26 12:36:12;;;;;;;9.13;4.00;;;7.40;99.90;;;;;;4995240;28;20500;-68
2020/12/26 12:38:38;;;;;;;6.37;4.30;;;7.40;99.90;;;;;;4995180;28;20432;-68
2020/12/26 12:44:25;;;;;;;5.47;3.60;;;7.20;99.90;;;;;;4994831;28;20707;-69
2020/12/26 12:50:13;;;;;;;5.33;4.57;;;7.10;99.90;;;;;;4995045;28;20192;-69
2020/12/26 12:52:39;;;;;;;5.47;3.97;;;7.10;99.90;;;;;;4995172;28;20436;-69
2020/12/26 12:58:26;;;;;;;8.03;3.57;;;7.00;99.90;;;;;;4994849;28;20439;-71
2020/12/26 13:04:14;;;;;;;6.47;3.50;;;7.10;99.90;;;;;;4994382;28;20215;-73
2020/12/26 13:06:40;;;;;;;5.00;3.70;;;7.20;99.90;;;;;;4994860;28;20428;-73
2020/12/26 13:09:05;;;;;;;2.87;2.60;;;7.20;99.90;;;;;;4995002;28;20180;-72
2020/12/26 13:14:52;;;;;;;8.33;4.40;;;7.10;99.90;;;;;;4994645;28;20585;-73
2020/12/26 13:20:40;;;;;;;7.50;2.90;;;7.10;99.90;;;;;;4994532;28;20597;-70
2020/12/26 13:23:05;;;;;;;4.57;2.97;;;7.20;99.90;;;;;;4994213;28;20523;-69
2020/12/26 13:28:53;;;;;;;4.70;2.50;;;7.30;99.90;;;;;;4994374;28;20691;-68
2020/12/26 13:31:32;;;;;;;5.70;2.83;;;7.00;99.90;;;;;;4994449;28;20416;-68
2020/12/26 13:33:58;;;;;;;5.43;2.83;;;6.80;99.90;;;;;;4994494;28;20428;-68
2020/12/26 13:36:24;;;;;;;6.20;2.67;;;6.80;99.90;;;;;;4994453;28;20424;-69
2020/12/26 13:38:50;;;;;;;4.67;3.10;;;6.90;99.90;;;;;;4994309;28;20181;-69
2020/12/26 13:41:15;;;;;;;6.47;2.23;;;6.80;99.90;;;;;;4994280;28;20424;-69
2020/12/26 13:47:09;;;;;;;4.47;2.57;;;6.60;99.90;;;;;;4983513;28;20298;-70
2020/12/26 13:49:34;;;;;;;3.20;2.60;;;6.70;99.90;;;;;;4994290;28;20477;-70
2020/12/26 13:52:00;;;;;;;6.83;2.87;;;6.70;99.90;;;;;;4994017;28;20692;-70
2020/12/26 13:54:28;;;;;;;6.70;2.60;;;6.60;99.90;;;;;;4994265;28;20173;-70
2020/12/26 13:56:53;;;;;;;4.80;2.57;;;6.70;99.90;;;;;;4994275;28;20181;-70
2020/12/26 13:59:19;;;;;;;3.40;2.77;;;6.70;99.90;;;;;;4994198;28;20434;-69
2020/12/26 14:05:06;;;;;;;13.47;6.20;;;6.70;99.90;;;;;;4993676;28;20694;-76
2020/12/26 14:07:35;;;;;;;17.50;7.47;;;6.90;99.90;;;;;;4993655;28;20420;-73
2020/12/26 14:13:23;;;;;;;8.53;3.07;;;7.20;99.90;;;;;;4993891;28;20441;-70
2020/12/26 14:15:48;;;;;;;5.03;3.13;;;7.10;99.90;;;;;;4994033;28;20943;-72
2020/12/26 14:18:14;;;;;;;4.53;2.80;;;7.10;99.90;;;;;;4993744;28;20204;-70
2020/12/26 14:20:39;;;;;;;4.37;2.80;;;6.90;99.90;;;;;;4994276;28;20188;-70
2020/12/26 14:23:06;;;;;;;3.93;3.00;;;6.90;99.90;;;;;;4993945;28;20260;-73
2020/12/26 14:28:54;;;;;;;5.43;2.70;;;6.70;99.90;;;;;;4997651;28;20467;-69
2020/12/26 14:31:20;;;;;;;2.17;1.97;;;6.70;99.90;;;;;;4997881;28;20420;-69
2020/12/26 14:33:45;;;;;;;5.37;2.63;;;6.70;99.90;;;;;;4997732;28;20205;-69
2020/12/26 14:36:11;;;;;;;5.33;3.40;;;6.80;99.90;;;;;;4997673;28;20173;-69
2020/12/26 14:38:36;;;;;;;4.27;2.40;;;6.70;99.90;;;;;;4997504;28;20517;-69
2020/12/26 14:41:02;;;;;;;7.87;2.73;;;6.70;99.90;;;;;;4997721;28;20173;-69
2020/12/26 14:43:28;;;;;;;4.40;2.60;;;6.70;99.90;;;;;;4997595;28;20259;-69
2020/12/26 14:45:53;;;;;;;5.00;2.07;;;6.60;99.90;;;;;;4997557;28;20276;-69
2020/12/26 14:48:19;;;;;;;5.87;2.20;;;6.70;99.90;;;;;;4997264;28;20181;-69
2020/12/26 14:50:46;;;;;;;3.00;2.27;;;6.60;99.90;;;;;;4997312;28;20177;-69
2020/12/26 14:53:11;;;;;;;3.37;2.20;;;6.70;99.90;;;;;;4997287;28;20207;-69
2020/12/26 14:55:37;;;;;;;3.57;2.30;;;6.60;99.90;;;;;;4997472;28;20479;-69
2020/12/26 14:58:02;;;;;;;4.97;2.40;;;6.60;99.90;;;;;;4997519;28;20227;-69
2020/12/26 15:00:28;;;;;;;5.47;2.37;;;6.70;99.90;;;;;;4997452;28;20197;-69
2020/12/26 15:02:54;;;;;;;3.30;2.30;;;6.70;99.90;;;;;;4997314;28;20173;-69
2020/12/26 15:05:19;;;;;;;3.97;2.37;;;6.50;99.90;;;;;;4997179;28;20211;-69
2020/12/26 15:07:44;;;;;;;6.30;3.33;;;6.60;99.90;;;;;;4996970;28;20210;-69
2020/12/26 15:10:10;;;;;;;4.10;2.60;;;6.60;99.90;;;;;;4997115;28;20632;-69
2020/12/26 15:12:36;;;;;;;6.47;2.20;;;6.50;99.90;;;;;;4997162;28;20643;-69
2020/12/26 15:15:01;;;;;;;4.73;2.63;;;6.40;99.90;;;;;;4997034;28;20185;-69
2020/12/26 15:17:27;;;;;;;6.13;2.20;;;6.40;99.90;;;;;;4996777;28;20216;-69
2020/12/26 15:19:53;;;;;;;3.30;2.40;;;6.40;99.90;;;;;;4997051;28;20189;-69
2020/12/26 15:22:18;;;;;;;3.80;2.13;;;6.50;99.90;;;;;;4996941;28;20169;-69
2020/12/26 15:24:44;;;;;;;4.17;2.30;;;6.70;99.90;;;;;;4996520;28;20212;-67
2020/12/26 15:27:09;;;;;;;3.03;2.55;;;6.70;99.90;;;;;;4995727;28;20416;-67
2020/12/26 15:29:35;;;;;;;4.73;2.70;;;6.60;99.90;;;;;;4996457;28;20181;-67
2020/12/26 15:32:00;;;;;;;6.60;2.53;;;6.50;99.90;;;;;;4996730;28;20173;-69
2020/12/26 15:34:26;;;;;;;2.80;1.77;;;6.60;99.90;;;;;;4996628;28;20252;-68
2020/12/26 15:36:51;;;;;;;3.70;2.30;;;6.50;99.90;;;;;;4995471;28;20188;-68
2020/12/26 15:39:17;;;;;;;7.67;3.40;;;6.50;99.90;;;;;;4996629;28;20644;-68
2020/12/26 15:41:46;;;;;;;4.67;2.67;;;6.60;99.90;;;;;;4996552;28;20196;-68
2020/12/26 15:44:12;;;;;;;5.00;3.00;;;6.50;99.90;;;;;;4996438;28;20595;-68
2020/12/26 15:46:39;;;;;;;3.43;2.20;;;6.40;99.90;;;;;;4996111;28;20468;-68
2020/12/26 15:52:26;;;;;;;2.20;2.00;;;6.00;99.90;;;;;;4996179;28;20407;-68
2020/12/26 15:58:14;;;;;;;3.90;2.43;;;6.00;99.90;;;;;;4996010;28;20192;-70
2020/12/26 16:00:39;;;;;;;5.30;2.60;;;6.10;99.90;;;;;;4995776;28;20432;-69
2020/12/26 16:06:27;;;;;;;4.23;2.40;;;5.90;99.90;;;;;;4995917;28;20583;-70
2020/12/26 16:08:53;;;;;;;1.83;1.73;;;5.90;99.90;;;;;;4996023;28;20427;-71
2020/12/26 16:11:19;;;;;;;2.50;2.30;;;5.90;99.90;;;;;;4995872;28;20428;-70
2020/12/26 16:13:44;;;;;;;2.53;2.33;;;5.90;99.90;;;;;;4995768;28;20624;-68
2020/12/26 16:16:12;;;;;;;3.63;2.80;;;5.90;99.90;;;;;;4995499;28;20180;-68
2020/12/26 16:18:42;;;;;;;3.30;2.63;;;5.90;99.90;;;;;;4995790;28;20551;-68
2020/12/26 16:21:07;;;;;;;5.97;2.70;;;5.80;99.90;;;;;;4995636;28;20503;-68
2020/12/26 16:23:33;;;;;;;10.53;3.03;;;5.80;99.90;;;;;;4995575;28;20949;-68
2020/12/26 16:25:58;;;;;;;2.77;2.13;;;5.80;99.90;;;;;;4995578;28;20648;-68
2020/12/26 16:28:24;;;;;;;3.13;2.80;;;5.70;99.90;;;;;;4995164;28;20173;-68
2020/12/26 16:34:12;;;;;;;6.93;2.97;;;5.70;99.90;;;;;;4995186;28;20449;-68
2020/12/26 16:36:37;;;;;;;2.93;2.67;;;5.90;99.90;;;;;;4995400;28;20448;-68
2020/12/26 16:39:03;;;;;;;4.80;2.50;;;5.70;99.90;;;;;;4995200;28;20301;-68
2020/12/26 16:41:33;;;;;;;4.13;3.57;;;5.70;99.90;;;;;;4994977;28;20184;-68
2020/12/26 16:47:21;;;;;;;2.37;2.17;;;5.90;99.90;;;;;;4991765;28;20482;-69
2020/12/26 16:53:08;;;;;;;3.63;3.30;;;5.80;99.90;;;;;;4994782;28;20185;-69
2020/12/26 16:55:34;;;;;;;3.47;3.17;;;5.80;99.90;;;;;;4994605;28;20436;-69
2020/12/26 16:57:59;;;;;;;2.83;2.40;;;5.80;99.90;;;;;;4994615;28;20177;-68
2020/12/26 17:00:25;;;;;;;3.10;2.60;;;5.80;99.90;;;;;;4994638;28;20293;-69
2020/12/26 17:02:50;;;;;;;3.53;3.20;;;5.80;99.90;;;;;;4994829;28;20643;-69
2020/12/26 17:05:16;;;;;;;4.60;2.80;;;5.70;99.90;;;;;;4994512;28;20232;-69
2020/12/26 17:07:41;;;;;;;4.83;3.17;;;5.70;99.90;;;;;;4994761;28;20180;-69
2020/12/26 17:10:07;;;;;;;3.67;3.27;;;5.70;99.90;;;;;;4994741;28;20528;-69
2020/12/26 17:12:32;;;;;;;4.03;3.07;;;5.70;99.90;;;;;;4994804;28;20167;-70
2020/12/26 17:18:20;;;;;;;6.10;3.10;;;5.80;99.90;;;;;;4994510;28;20226;-68
2020/12/26 17:24:07;;;;;;;4.97;2.90;;;5.80;99.90;;;;;;4994103;28;20294;-69
2020/12/26 17:26:33;;;;;;;3.27;2.97;;;5.70;99.90;;;;;;4994527;28;20510;-68
2020/12/26 17:32:21;;;;;;;3.30;2.83;;;5.70;99.90;;;;;;4994841;28;20615;-68
2020/12/26 17:34:47;;;;;;;4.03;3.70;;;5.70;99.90;;;;;;4994547;28;20431;-68
2020/12/26 17:37:13;;;;;;;6.40;3.80;;;5.70;99.90;;;;;;4994452;28;20179;-69
2020/12/26 17:39:39;;;;;;;3.57;2.67;;;5.60;99.90;;;;;;4994460;28;20180;-69
2020/12/26 17:42:04;;;;;;;4.20;2.80;;;5.70;99.90;;;;;;4994332;28;20458;-69
2020/12/26 17:47:52;;;;;;;3.90;3.07;;;5.60;99.90;;;;;;4988796;28;20283;-68
2020/12/26 17:53:40;;;;;;;3.90;3.33;;;5.40;99.90;;;;;;4994016;28;20207;-68
2020/12/26 17:56:05;;;;;;;6.30;2.97;;;5.30;99.90;;;;;;4994391;28;20463;-69
2020/12/26 17:58:31;;;;;;;5.10;3.03;;;5.30;99.90;;;;;;4993593;28;20566;-69
2020/12/26 18:00:57;;;;;;;3.20;2.73;;;5.20;99.90;;;;;;4994177;28;20182;-68
2020/12/26 18:06:45;;;;;;;4.83;3.60;;;5.20;99.90;;;;;;4993931;28;20448;-69
2020/12/26 18:09:10;;;;;;;4.27;3.30;;;5.30;99.90;;;;;;4994101;28;20424;-68
2020/12/26 18:15:03;;;;;;;5.33;3.33;;;5.40;99.90;;;;;;4994099;28;20171;-69
2020/12/26 18:17:30;;;;;;;3.27;2.70;;;5.30;99.90;;;;;;4993970;28;20440;-69
2020/12/26 18:23:21;;;;;;;3.40;3.00;;;5.30;99.90;;;;;;4993600;28;21018;-69
2020/12/26 18:29:08;;;;;;;6.27;3.17;;;5.50;99.90;;;;;;4993633;28;20406;-68
2020/12/26 18:31:37;;;;;;;3.30;3.00;;;5.50;99.90;;;;;;4994278;28;20423;-68
2020/12/26 18:37:25;;;;;;;4.90;3.13;;;5.70;99.90;;;;;;4993650;28;20412;-67
2020/12/26 18:43:13;;;;;;;5.13;3.03;;;5.50;99.90;;;;;;4993585;28;20948;-69
2020/12/26 18:45:38;;;;;;;5.47;3.53;;;5.40;99.90;;;;;;4993742;28;20436;-68
2020/12/26 18:48:04;;;;;;;4.00;3.60;;;5.40;99.90;;;;;;4993421;28;20217;-68
2020/12/26 18:50:29;;;;;;;4.27;2.90;;;5.40;99.90;;;;;;4993527;28;20184;-66
2020/12/26 18:52:58;;;;;;;4.20;3.40;;;5.50;99.90;;;;;;4993502;28;20231;-63
2020/12/26 18:55:24;;;;;;;2.97;2.40;;;5.50;99.90;;;;;;4993737;28;20183;-64
2020/12/26 18:57:49;;;;;;;4.03;3.23;;;5.50;99.90;;;;;;4993700;28;20999;-65
2020/12/26 19:03:37;;;;;;;3.47;3.17;;;5.40;99.90;;;;;;4993263;28;20204;-67
2020/12/26 19:06:05;;;;;;;8.17;3.30;;;5.40;99.90;;;;;;4993625;28;20791;-66
2020/12/26 19:08:30;;;;;;;4.27;3.17;;;5.40;99.90;;;;;;4994328;28;20625;-66
2020/12/26 19:10:56;;;;;;;4.90;3.73;;;5.40;99.90;;;;;;4995859;28;20471;-67
2020/12/26 19:16:43;;;;;;;7.03;3.53;;;5.30;99.90;;;;;;4996818;28;20636;-68
2020/12/26 19:22:32;;;;;;;4.70;3.00;;;5.40;99.90;;;;;;4996642;28;20172;-68
2020/12/26 19:24:57;;;;;;;4.47;3.80;;;5.40;99.90;;;;;;4996727;28;20495;-67
2020/12/26 19:30:45;;;;;;;3.57;3.10;;;5.50;99.90;;;;;;4996654;28;20198;-68
2020/12/26 19:36:32;;;;;;;3.97;3.00;;;5.40;99.90;;;;;;4996493;28;20170;-68
2020/12/26 19:38:58;;;;;;;3.50;3.20;;;5.40;99.90;;;;;;4996584;28;20902;-69
2020/12/26 19:44:45;;;;;;;4.47;3.43;;;5.50;99.90;;;;;;4996512;28;20218;-69
2020/12/26 19:47:11;;;;;;;3.60;3.10;;;5.50;99.90;;;;;;4996312;28;20464;-68
2020/12/26 19:49:36;;;;;;;4.63;3.83;;;5.60;99.90;;;;;;4996439;28;20523;-68
2020/12/26 19:52:04;;;;;;;3.93;3.50;;;5.60;99.90;;;;;;4996371;28;20178;-68
2020/12/26 19:57:51;;;;;;;8.40;3.47;;;5.40;99.90;;;;;;4996113;28;20516;-67
2020/12/26 20:03:39;;;;;;;3.87;3.37;;;5.30;99.90;;;;;;4995950;28;20246;-66
2020/12/26 20:09:26;;;;;;;3.57;3.23;;;5.30;99.90;;;;;;4995983;28;20167;-66
2020/12/26 20:11:57;;;;;;;3.57;3.10;;;5.20;99.90;;;;;;4996088;28;20907;-65
2020/12/26 20:14:22;;;;;;;3.67;3.03;;;5.30;99.90;;;;;;4995906;28;20637;-64
2020/12/26 20:16:48;;;;;;;4.70;3.13;;;5.40;99.90;;;;;;4996206;28;20424;-68